Time;durP1;ratioP1;P1;durP2;ratioP2;P2;SDS_P1;SDS_P2;PMS_P1;PMS_P2;Temp;Humidity;BMP_temperature;BMP_pressure;BME280_temperature;BME280_humidity;BME280_pressure;Samples;Min_cycle;Max_cycle;Signal;HPM_P1;HPM_P2
2023/01/22 00:01:59;;;;;;;35.63;25.00;;;;;;;;;;4961441;28;20178;-83
2023/01/22 00:04:25;;;;;;;36.73;25.47;;;;;;;;;;4945336;28;20274;-83
2023/01/22 00:06:51;;;;;;;35.40;24.73;;;;;;;;;;4960312;28;20194;-83
2023/01/22 00:09:17;;;;;;;37.03;26.43;;;;;;;;;;4943515;28;20237;-80
2023/01/22 00:11:43;;;;;;;37.80;25.50;;;;;;;;;;4945101;28;20206;-80
2023/01/22 00:14:09;;;;;;;35.17;25.13;;;;;;;;;;4944503;28;20191;-80
2023/01/22 00:16:35;;;;;;;37.43;25.63;;;;;;;;;;4945415;28;20186;-80
2023/01/22 00:19:01;;;;;;;34.83;24.20;;;;;;;;;;4944781;28;20233;-80
2023/01/22 00:21:27;;;;;;;34.33;24.17;;;;;;;;;;4945595;28;20194;-80
2023/01/22 00:23:53;;;;;;;33.73;24.50;;;;;;;;;;4945858;28;20243;-80
2023/01/22 00:26:19;;;;;;;35.43;24.97;;;;;;;;;;4961425;28;20206;-80
2023/01/22 00:28:46;;;;;;;35.00;24.27;;;;;;;;;;4978375;28;20262;-80
2023/01/22 00:31:12;;;;;;;42.80;31.65;;;;;;;;;;4977827;28;20429;-80
2023/01/22 00:33:39;;;;;;;34.67;24.60;;;;;;;;;;4961015;28;20186;-80
2023/01/22 00:36:06;;;;;;;36.00;24.97;;;;;;;;;;4945539;28;20186;-80
2023/01/22 00:38:32;;;;;;;34.23;23.47;;;;;;;;;;4960866;28;20269;-80
2023/01/22 00:41:02;;;;;;;32.30;22.23;;;;;;;;;;4944734;28;20190;-80
2023/01/22 00:43:29;;;;;;;35.33;23.20;;;;;;;;;;4942281;29;20183;-80
2023/01/22 00:45:55;;;;;;;30.00;21.07;;;;;;;;;;4941922;28;20176;-80
2023/01/22 00:48:21;;;;;;;35.53;29.70;;;;;;;;;;4958851;28;20437;-80
2023/01/22 00:50:47;;;;;;;32.53;23.57;;;;;;;;;;4945682;28;20214;-80
2023/01/22 00:53:13;;;;;;;29.20;21.73;;;;;;;;;;4951440;28;20222;-80
2023/01/22 00:55:39;;;;;;;33.27;21.73;;;;;;;;;;4945276;28;20190;-80
2023/01/22 00:58:05;;;;;;;29.17;20.63;;;;;;;;;;4960420;28;20273;-81
2023/01/22 01:00:31;;;;;;;29.53;20.00;;;;;;;;;;4942700;28;20241;-84
2023/01/22 01:05:42;;;;;;;24.73;19.07;;;;;;;;;;4963551;28;20194;-85
2023/01/22 01:08:08;;;;;;;29.15;24.42;;;;;;;;;;4942558;28;20439;-84
2023/01/22 01:10:34;;;;;;;28.85;24.63;;;;;;;;;;4943044;28;20498;-85
2023/01/22 01:13:00;;;;;;;25.27;19.73;;;;;;;;;;4944978;28;20293;-84
2023/01/22 01:15:26;;;;;;;24.57;18.73;;;;;;;;;;4941307;29;20274;-85
2023/01/22 01:17:52;;;;;;;24.13;17.93;;;;;;;;;;4957109;29;20282;-83
2023/01/22 01:20:18;;;;;;;27.47;18.63;;;;;;;;;;4959750;28;20265;-82
2023/01/22 01:22:44;;;;;;;27.67;23.17;;;;;;;;;;4960249;28;20434;-83
2023/01/22 01:25:10;;;;;;;27.73;19.67;;;;;;;;;;4944890;28;20182;-83
2023/01/22 01:27:36;;;;;;;24.83;18.37;;;;;;;;;;4944599;28;20187;-80
2023/01/22 01:30:02;;;;;;;23.77;17.83;;;;;;;;;;4944141;28;20282;-80
2023/01/22 01:32:28;;;;;;;22.60;17.57;;;;;;;;;;4944708;28;20183;-80
2023/01/22 01:34:54;;;;;;;25.65;22.63;;;;;;;;;;4943619;28;20497;-80
2023/01/22 01:37:20;;;;;;;24.63;18.53;;;;;;;;;;4960210;28;20265;-80
2023/01/22 01:39:50;;;;;;;26.27;18.53;;;;;;;;;;4944141;28;20186;-80
2023/01/22 01:42:21;;;;;;;25.13;18.27;;;;;;;;;;4960545;28;20246;-79
2023/01/22 01:45:07;;;;;;;22.80;17.87;;;;;;;;;;4959910;28;20269;-80
2023/01/22 01:47:35;;;;;;;26.87;22.63;;;;;;;;;;4976368;28;20410;-80
2023/01/22 01:50:01;;;;;;;26.43;19.27;;;;;;;;;;4960249;28;20473;-80
2023/01/22 01:52:27;;;;;;;24.83;17.47;;;;;;;;;;4959931;28;20190;-80
2023/01/22 01:54:55;;;;;;;26.53;17.70;;;;;;;;;;4976858;28;20321;-80
2023/01/22 01:57:30;;;;;;;25.13;17.57;;;;;;;;;;4959533;28;20229;-80
2023/01/22 01:59:57;;;;;;;24.43;18.17;;;;;;;;;;4959310;28;20209;-80
2023/01/22 02:02:23;;;;;;;23.10;17.30;;;;;;;;;;4959731;28;20193;-80
2023/01/22 02:04:50;;;;;;;23.80;17.73;;;;;;;;;;4959930;28;20182;-80
2023/01/22 02:07:16;;;;;;;25.33;17.47;;;;;;;;;;4959598;28;20250;-80
2023/01/22 02:09:42;;;;;;;24.37;17.83;;;;;;;;;;4943925;28;20214;-80
2023/01/22 02:12:09;;;;;;;23.83;18.03;;;;;;;;;;4960051;28;20182;-80
2023/01/22 02:14:38;;;;;;;26.80;18.23;;;;;;;;;;4958973;28;20273;-80
2023/01/22 02:17:10;;;;;;;30.63;19.50;;;;;;;;;;4959108;28;20273;-80
2023/01/22 02:19:36;;;;;;;30.08;22.33;;;;;;;;;;4958359;28;20468;-80
2023/01/22 02:22:02;;;;;;;25.07;18.77;;;;;;;;;;4959142;28;20261;-80
2023/01/22 02:24:32;;;;;;;22.83;17.53;;;;;;;;;;4959566;28;20221;-83
2023/01/22 02:26:58;;;;;;;24.63;17.87;;;;;;;;;;4958850;28;20217;-83
2023/01/22 02:29:26;;;;;;;27.83;24.40;;;;;;;;;;4942373;28;20467;-83
2023/01/22 02:31:52;;;;;;;29.70;19.37;;;;;;;;;;4941393;28;20194;-83
2023/01/22 02:34:18;;;;;;;26.43;18.40;;;;;;;;;;4956509;23;20352;-84
2023/01/22 02:36:46;;;;;;;21.97;17.43;;;;;;;;;;4948155;29;20195;-85
2023/01/22 02:39:12;;;;;;;24.27;17.93;;;;;;;;;;4939152;29;20179;-85
2023/01/22 02:41:47;;;;;;;27.23;18.30;;;;;;;;;;4928023;29;20204;-84
2023/01/22 02:44:13;;;;;;;25.40;17.87;;;;;;;;;;4936804;29;20220;-85
2023/01/22 02:46:39;;;;;;;25.33;17.47;;;;;;;;;;4947729;29;20207;-84
2023/01/22 02:49:08;;;;;;;27.48;21.85;;;;;;;;;;4938878;29;20420;-85
2023/01/22 02:51:34;;;;;;;24.30;19.03;;;;;;;;;;4939320;29;20213;-84
2023/01/22 02:54:02;;;;;;;28.63;19.13;;;;;;;;;;4939544;29;20190;-84
2023/01/22 02:56:32;;;;;;;23.27;17.00;;;;;;;;;;4938907;29;20183;-84
2023/01/22 02:59:05;;;;;;;28.13;24.42;;;;;;;;;;4937962;29;20411;-84
2023/01/22 03:01:31;;;;;;;28.90;24.15;;;;;;;;;;4938195;29;20419;-84
2023/01/22 03:04:10;;;;;;;26.57;19.93;;;;;;;;;;4939061;29;20191;-84
2023/01/22 03:06:47;;;;;;;29.85;24.45;;;;;;;;;;4938138;29;20426;-84
2023/01/22 03:09:19;;;;;;;27.52;21.30;;;;;;;;;;4938752;29;20400;-86
2023/01/22 03:11:46;;;;;;;26.03;18.90;;;;;;;;;;4938719;29;20175;-85
2023/01/22 03:22:36;;;;;;;24.95;21.67;;;;;;;;;;4950897;29;20513;-84
2023/01/22 03:25:02;;;;;;;24.83;19.47;;;;;;;;;;4934413;29;20191;-85
2023/01/22 03:27:29;;;;;;;22.17;17.37;;;;;;;;;;4946940;29;20238;-85
2023/01/22 03:29:58;;;;;;;24.97;17.63;;;;;;;;;;4938121;29;20222;-85
2023/01/22 03:32:24;;;;;;;25.63;17.47;;;;;;;;;;4938202;29;20332;-85
2023/01/22 03:34:50;;;;;;;24.77;16.30;;;;;;;;;;4937563;29;20227;-84
2023/01/22 03:37:16;;;;;;;23.55;18.67;;;;;;;;;;4937778;29;20427;-84
2023/01/22 03:39:45;;;;;;;23.43;17.87;;;;;;;;;;4938100;29;20187;-85
2023/01/22 03:42:11;;;;;;;23.47;18.00;;;;;;;;;;4937925;29;20195;-85
2023/01/22 03:44:37;;;;;;;22.63;17.60;;;;;;;;;;4937644;29;20191;-84
2023/01/22 03:47:03;;;;;;;23.77;17.90;;;;;;;;;;4937751;29;20266;-85
2023/01/22 03:49:31;;;;;;;24.17;17.37;;;;;;;;;;4938784;29;20242;-85
2023/01/22 03:52:00;;;;;;;26.13;21.77;;;;;;;;;;4920420;29;20471;-84
2023/01/22 03:54:28;;;;;;;24.77;20.42;;;;;;;;;;4914082;29;20425;-84
2023/01/22 03:56:54;;;;;;;23.67;17.80;;;;;;;;;;4917783;29;20190;-85
2023/01/22 03:59:20;;;;;;;23.33;17.50;;;;;;;;;;4929574;29;20194;-85
2023/01/22 04:01:46;;;;;;;27.08;22.25;;;;;;;;;;4930253;29;20471;-85
2023/01/22 04:04:15;;;;;;;23.97;18.43;;;;;;;;;;4928163;29;20179;-84
2023/01/22 04:06:41;;;;;;;23.67;17.03;;;;;;;;;;4929894;28;20179;-86
2023/01/22 04:09:07;;;;;;;21.33;18.10;;;;;;;;;;4930406;29;20182;-86
2023/01/22 04:11:33;;;;;;;21.03;16.93;;;;;;;;;;4929305;29;20239;-85
2023/01/22 04:14:02;;;;;;;23.88;21.23;;;;;;;;;;4932120;28;20413;-85
2023/01/22 04:16:28;;;;;;;23.77;18.40;;;;;;;;;;4927612;28;20179;-85
2023/01/22 04:18:54;;;;;;;24.73;18.57;;;;;;;;;;4931559;28;20176;-85
2023/01/22 04:21:22;;;;;;;27.53;17.70;;;;;;;;;;4929321;29;20191;-86
2023/01/22 04:23:48;;;;;;;22.57;17.70;;;;;;;;;;4930067;28;20259;-85
2023/01/22 04:26:14;;;;;;;24.00;18.17;;;;;;;;;;4929072;29;20184;-86
2023/01/22 04:28:40;;;;;;;23.97;18.20;;;;;;;;;;4930053;28;20192;-84
2023/01/22 04:31:09;;;;;;;24.03;18.47;;;;;;;;;;4930652;28;20212;-85
2023/01/22 04:33:35;;;;;;;24.50;18.90;;;;;;;;;;4928830;28;20239;-85
2023/01/22 04:36:01;;;;;;;23.83;17.73;;;;;;;;;;4928946;29;20230;-85
2023/01/22 04:38:27;;;;;;;24.30;18.77;;;;;;;;;;4931532;28;20180;-85
2023/01/22 04:40:56;;;;;;;24.00;18.10;;;;;;;;;;4944344;29;20230;-86
2023/01/22 04:43:22;;;;;;;25.77;19.50;;;;;;;;;;4942233;28;20184;-85
2023/01/22 04:45:49;;;;;;;27.43;18.47;;;;;;;;;;4936536;28;20202;-86
2023/01/22 04:48:23;;;;;;;26.20;20.13;;;;;;;;;;4932082;29;20187;-85
2023/01/22 04:50:49;;;;;;;27.43;19.30;;;;;;;;;;4915380;29;20212;-85
2023/01/22 04:53:18;;;;;;;25.73;19.43;;;;;;;;;;4934336;28;20191;-85
2023/01/22 04:55:46;;;;;;;26.57;18.80;;;;;;;;;;4931357;28;20171;-84
2023/01/22 04:58:15;;;;;;;27.87;19.27;;;;;;;;;;4948449;29;20179;-84
2023/01/22 05:00:42;;;;;;;22.73;18.83;;;;;;;;;;4932697;29;20183;-85
2023/01/22 05:03:17;;;;;;;27.10;19.73;;;;;;;;;;4935036;29;20187;-85
2023/01/22 05:05:43;;;;;;;25.13;18.13;;;;;;;;;;4934887;29;20183;-85
2023/01/22 05:08:16;;;;;;;24.43;18.53;;;;;;;;;;4933103;28;20207;-86
2023/01/22 05:10:42;;;;;;;25.90;17.93;;;;;;;;;;4932296;29;20226;-85
2023/01/22 05:13:08;;;;;;;24.53;18.67;;;;;;;;;;4934497;28;20183;-85
2023/01/22 05:15:37;;;;;;;28.40;19.47;;;;;;;;;;4934158;29;20183;-84
2023/01/22 05:18:03;;;;;;;24.37;18.33;;;;;;;;;;4937449;28;20187;-85
2023/01/22 05:20:29;;;;;;;23.33;18.27;;;;;;;;;;4933271;28;20191;-84
2023/01/22 05:22:55;;;;;;;24.10;18.53;;;;;;;;;;4933796;29;20247;-85
2023/01/22 05:25:28;;;;;;;25.53;18.53;;;;;;;;;;4933649;29;20187;-84
2023/01/22 05:27:57;;;;;;;26.27;19.27;;;;;;;;;;4948396;29;20187;-85
2023/01/22 05:30:23;;;;;;;23.80;18.40;;;;;;;;;;4934002;29;20216;-84
2023/01/22 05:32:49;;;;;;;25.77;19.73;;;;;;;;;;4931673;28;20172;-84
2023/01/22 05:35:21;;;;;;;25.00;19.30;;;;;;;;;;4932479;28;20219;-85
2023/01/22 05:37:47;;;;;;;25.73;18.50;;;;;;;;;;4932515;28;20180;-85
2023/01/22 05:40:13;;;;;;;26.07;19.03;;;;;;;;;;4918211;28;20274;-85
2023/01/22 05:42:42;;;;;;;24.30;18.43;;;;;;;;;;4930843;28;20183;-85
2023/01/22 05:45:09;;;;;;;27.00;18.70;;;;;;;;;;4933552;29;20259;-84
2023/01/22 05:47:37;;;;;;;24.30;18.30;;;;;;;;;;4931318;29;20182;-85
2023/01/22 05:50:06;;;;;;;24.27;18.70;;;;;;;;;;4933568;29;20302;-85
2023/01/22 05:52:32;;;;;;;24.93;18.83;;;;;;;;;;4929991;29;20194;-85
2023/01/22 05:55:00;;;;;;;22.63;17.47;;;;;;;;;;4933743;28;20176;-85
2023/01/22 05:57:31;;;;;;;20.50;16.87;;;;;;;;;;4917608;29;20270;-84
2023/01/22 05:59:57;;;;;;;20.83;17.00;;;;;;;;;;4934594;29;20183;-85
2023/01/22 06:02:23;;;;;;;21.77;16.97;;;;;;;;;;4931104;29;20326;-85
2023/01/22 06:04:49;;;;;;;21.97;17.40;;;;;;;;;;4929528;28;20296;-85
2023/01/22 06:07:18;;;;;;;19.13;16.20;;;;;;;;;;4931392;28;20187;-85
2023/01/22 06:09:44;;;;;;;21.80;16.53;;;;;;;;;;4931333;29;20203;-86
2023/01/22 06:12:14;;;;;;;23.17;17.33;;;;;;;;;;4931461;28;20191;-85
2023/01/22 06:14:56;;;;;;;22.40;16.77;;;;;;;;;;4931922;29;20259;-85
2023/01/22 06:17:24;;;;;;;20.20;16.63;;;;;;;;;;4934570;28;20207;-85
2023/01/22 06:19:50;;;;;;;20.57;16.67;;;;;;;;;;4939815;29;20187;-85
2023/01/22 06:22:18;;;;;;;20.13;16.47;;;;;;;;;;4939793;29;20279;-84
2023/01/22 06:24:46;;;;;;;21.57;16.50;;;;;;;;;;4938784;29;20230;-85
2023/01/22 06:27:12;;;;;;;19.80;16.03;;;;;;;;;;4939596;29;20253;-86
2023/01/22 06:29:38;;;;;;;22.80;17.23;;;;;;;;;;4938864;29;20258;-85
2023/01/22 06:32:05;;;;;;;19.40;15.97;;;;;;;;;;4938670;29;20282;-84
2023/01/22 06:34:33;;;;;;;21.43;16.80;;;;;;;;;;4939540;29;20235;-85
2023/01/22 06:36:59;;;;;;;21.60;16.50;;;;;;;;;;4939641;29;20187;-85
2023/01/22 06:39:25;;;;;;;20.03;15.30;;;;;;;;;;4939235;29;20237;-85
2023/01/22 06:41:53;;;;;;;22.93;16.23;;;;;;;;;;4926118;28;20219;-84
2023/01/22 06:44:19;;;;;;;19.60;15.43;;;;;;;;;;4950974;28;20194;-85
2023/01/22 06:46:46;;;;;;;18.40;15.60;;;;;;;;;;4939510;29;20297;-84
2023/01/22 06:49:13;;;;;;;21.77;15.87;;;;;;;;;;4938976;29;20187;-85
2023/01/22 06:51:41;;;;;;;18.87;15.00;;;;;;;;;;4939373;29;20187;-84
2023/01/22 06:54:10;;;;;;;17.20;14.60;;;;;;;;;;4942126;28;20229;-85
2023/01/22 06:56:38;;;;;;;18.53;14.47;;;;;;;;;;4958431;28;20179;-85
2023/01/22 06:59:05;;;;;;;17.90;14.40;;;;;;;;;;4944864;28;20180;-84
2023/01/22 07:01:31;;;;;;;18.50;14.37;;;;;;;;;;4938469;29;20176;-85
2023/01/22 07:03:57;;;;;;;17.47;14.03;;;;;;;;;;4923100;29;20191;-85
2023/01/22 07:06:25;;;;;;;24.40;14.23;;;;;;;;;;4939281;29;20175;-85
2023/01/22 07:08:52;;;;;;;17.50;12.73;;;;;;;;;;4939047;29;20187;-86
2023/01/22 07:11:18;;;;;;;18.13;13.13;;;;;;;;;;4938514;29;20281;-85
2023/01/22 07:13:47;;;;;;;18.07;12.57;;;;;;;;;;4929917;29;20235;-85
2023/01/22 07:16:13;;;;;;;18.27;13.27;;;;;;;;;;4935709;29;20195;-86
2023/01/22 07:18:39;;;;;;;14.53;13.03;;;;;;;;;;4930716;28;20179;-85
2023/01/22 07:21:05;;;;;;;18.13;12.73;;;;;;;;;;4934532;28;20195;-85
2023/01/22 07:23:34;;;;;;;16.83;12.37;;;;;;;;;;4928857;29;20184;-85
2023/01/22 07:26:00;;;;;;;16.23;12.47;;;;;;;;;;4931459;28;20214;-85
2023/01/22 07:28:28;;;;;;;16.77;12.63;;;;;;;;;;4929524;29;20239;-84
2023/01/22 07:30:57;;;;;;;16.13;12.27;;;;;;;;;;4930764;28;20301;-86
2023/01/22 07:33:23;;;;;;;15.97;12.23;;;;;;;;;;4930613;29;20180;-85
2023/01/22 07:35:55;;;;;;;14.63;11.73;;;;;;;;;;4936940;28;20222;-85
2023/01/22 07:38:21;;;;;;;17.83;12.37;;;;;;;;;;4930709;29;20194;-84
2023/01/22 07:40:48;;;;;;;15.07;11.93;;;;;;;;;;4932565;29;20198;-84
2023/01/22 07:43:17;;;;;;;17.67;12.57;;;;;;;;;;4933778;29;20208;-85
2023/01/22 07:45:43;;;;;;;13.47;11.90;;;;;;;;;;4931144;29;20215;-85
2023/01/22 07:48:09;;;;;;;14.57;12.70;;;;;;;;;;4930511;28;20195;-86
2023/01/22 07:50:48;;;;;;;13.37;11.93;;;;;;;;;;4936352;28;20304;-84
2023/01/22 07:53:17;;;;;;;17.60;12.73;;;;;;;;;;4944648;29;20239;-85
2023/01/22 07:55:43;;;;;;;17.02;15.23;;;;;;;;;;4932101;29;20424;-85
2023/01/22 07:58:10;;;;;;;15.63;13.80;;;;;;;;;;4927000;29;20198;-85
2023/01/22 08:00:38;;;;;;;17.37;13.00;;;;;;;;;;4930712;29;20224;-84
2023/01/22 08:03:05;;;;;;;14.30;12.80;;;;;;;;;;4929937;29;20209;-85
2023/01/22 08:05:31;;;;;;;16.97;13.70;;;;;;;;;;4913802;29;20192;-85
2023/01/22 08:07:59;;;;;;;17.17;12.77;;;;;;;;;;4928342;28;20279;-85
2023/01/22 08:10:25;;;;;;;15.47;12.70;;;;;;;;;;4929458;29;20301;-85
2023/01/22 08:12:51;;;;;;;17.03;12.90;;;;;;;;;;4929618;29;20184;-84
2023/01/22 08:15:20;;;;;;;15.77;12.13;;;;;;;;;;4934464;28;20190;-84
2023/01/22 08:17:48;;;;;;;14.70;12.13;;;;;;;;;;4934498;29;20176;-84
2023/01/22 08:20:14;;;;;;;15.87;13.63;;;;;;;;;;4932116;28;20266;-85
2023/01/22 08:22:40;;;;;;;15.80;12.77;;;;;;;;;;4933426;29;20199;-84
2023/01/22 08:25:07;;;;;;;17.03;12.57;;;;;;;;;;4931947;29;20184;-85
2023/01/22 08:27:36;;;;;;;14.30;12.13;;;;;;;;;;4936404;29;20219;-85
2023/01/22 08:30:10;;;;;;;14.53;12.90;;;;;;;;;;4931402;28;20215;-84
2023/01/22 08:32:40;;;;;;;15.52;13.93;;;;;;;;;;4933746;29;20424;-84
2023/01/22 08:35:07;;;;;;;16.10;12.70;;;;;;;;;;4933141;29;20274;-85
2023/01/22 08:37:33;;;;;;;14.43;12.60;;;;;;;;;;4933562;29;20210;-85
2023/01/22 08:39:59;;;;;;;12.97;11.50;;;;;;;;;;4933084;29;20175;-85
2023/01/22 08:42:27;;;;;;;14.07;11.73;;;;;;;;;;4933303;28;20172;-84
2023/01/22 08:44:53;;;;;;;12.83;11.53;;;;;;;;;;4932002;29;20183;-84
2023/01/22 08:47:19;;;;;;;13.40;11.77;;;;;;;;;;4935987;29;20282;-85
2023/01/22 08:49:46;;;;;;;14.87;11.67;;;;;;;;;;4931984;29;20234;-85
2023/01/22 08:52:14;;;;;;;13.10;11.70;;;;;;;;;;4934602;29;20179;-90
2023/01/22 08:54:40;;;;;;;12.67;11.33;;;;;;;;;;4942291;28;20175;-92
2023/01/22 08:57:06;;;;;;;12.80;11.37;;;;;;;;;;4938840;28;20175;-92
2023/01/22 08:59:32;;;;;;;14.80;13.27;;;;;;;;;;4936805;28;20436;-91
2023/01/22 09:02:01;;;;;;;15.35;13.70;;;;;;;;;;4932938;29;20432;-91
2023/01/22 09:04:27;;;;;;;12.30;10.93;;;;;;;;;;4944899;29;20266;-92
2023/01/22 09:07:02;;;;;;;12.13;10.93;;;;;;;;;;4939207;28;20179;-92
2023/01/22 09:09:28;;;;;;;12.83;10.40;;;;;;;;;;4936035;28;20183;-93
2023/01/22 09:12:03;;;;;;;12.70;11.00;;;;;;;;;;4926049;28;20183;-92
2023/01/22 09:14:29;;;;;;;14.37;12.80;;;;;;;;;;4921962;29;20432;-92
2023/01/22 09:16:58;;;;;;;14.15;12.77;;;;;;;;;;4930934;29;20494;-90
2023/01/22 09:19:24;;;;;;;13.60;12.25;;;;;;;;;;4941321;29;20456;-91
2023/01/22 09:21:50;;;;;;;13.10;11.80;;;;;;;;;;4940961;29;20420;-90
2023/01/22 09:24:16;;;;;;;12.77;10.93;;;;;;;;;;4925224;29;20211;-90
2023/01/22 09:26:42;;;;;;;11.27;10.07;;;;;;;;;;4940491;29;20171;-90
2023/01/22 09:29:08;;;;;;;11.67;9.90;;;;;;;;;;4941181;29;20182;-90
2023/01/22 09:31:35;;;;;;;13.73;12.40;;;;;;;;;;4940307;29;20486;-91
2023/01/22 09:34:02;;;;;;;11.83;10.63;;;;;;;;;;4942362;29;20459;-92
2023/01/22 09:36:28;;;;;;;11.47;10.27;;;;;;;;;;4925149;29;20235;-91
2023/01/22 09:38:54;;;;;;;11.57;9.80;;;;;;;;;;4941048;29;20191;-90
2023/01/22 09:41:29;;;;;;;11.67;10.47;;;;;;;;;;4941162;29;20187;-91
2023/01/22 09:44:03;;;;;;;14.23;10.33;;;;;;;;;;4940703;29;20256;-90
2023/01/22 09:46:38;;;;;;;12.93;9.90;;;;;;;;;;4941299;29;20207;-90
2023/01/22 09:49:07;;;;;;;13.80;10.40;;;;;;;;;;4941466;29;20186;-92
2023/01/22 09:51:34;;;;;;;11.57;10.37;;;;;;;;;;4940717;29;20206;-91
2023/01/22 09:54:03;;;;;;;11.73;10.03;;;;;;;;;;4941168;29;20195;-91
2023/01/22 09:56:35;;;;;;;13.20;10.53;;;;;;;;;;4941364;29;20179;-92
2023/01/22 09:59:03;;;;;;;12.07;10.17;;;;;;;;;;4940736;29;20183;-92
2023/01/22 10:01:29;;;;;;;12.07;10.40;;;;;;;;;;4940555;29;20183;-92
2023/01/22 10:04:05;;;;;;;11.27;10.07;;;;;;;;;;4940399;29;20242;-91
2023/01/22 10:06:33;;;;;;;12.63;10.20;;;;;;;;;;4939956;29;20182;-91
2023/01/22 10:09:23;;;;;;;12.33;10.57;;;;;;;;;;4940112;29;20176;-91
2023/01/22 10:11:51;;;;;;;12.50;10.33;;;;;;;;;;4940157;29;20230;-91
2023/01/22 10:14:18;;;;;;;13.13;10.70;;;;;;;;;;4940387;29;20274;-93
2023/01/22 10:16:44;;;;;;;13.03;10.57;;;;;;;;;;4940519;29;20175;-91
2023/01/22 10:19:13;;;;;;;12.77;10.20;;;;;;;;;;4924929;29;20190;-91
2023/01/22 10:21:45;;;;;;;12.03;10.77;;;;;;;;;;4941339;29;20187;-91
2023/01/22 10:24:11;;;;;;;13.77;10.33;;;;;;;;;;4940663;29;20186;-90
2023/01/22 10:26:42;;;;;;;11.90;10.37;;;;;;;;;;4939954;29;20175;-91
2023/01/22 10:29:12;;;;;;;12.03;10.27;;;;;;;;;;4946516;29;20183;-91
2023/01/22 10:31:47;;;;;;;13.30;10.53;;;;;;;;;;4940352;29;20187;-90
2023/01/22 10:34:15;;;;;;;12.53;10.63;;;;;;;;;;4940309;29;20179;-90
2023/01/22 10:36:50;;;;;;;13.90;10.83;;;;;;;;;;4940316;29;20190;-90
2023/01/22 10:39:17;;;;;;;12.00;10.10;;;;;;;;;;4939969;29;20175;-92
2023/01/22 10:41:44;;;;;;;12.37;10.23;;;;;;;;;;4939681;29;20180;-90
2023/01/22 10:44:21;;;;;;;13.10;10.57;;;;;;;;;;4940002;29;20272;-91
2023/01/22 10:46:49;;;;;;;15.17;10.50;;;;;;;;;;4954070;29;20207;-92
2023/01/22 10:49:25;;;;;;;13.77;11.00;;;;;;;;;;4939639;29;20187;-91
2023/01/22 10:51:58;;;;;;;12.40;10.07;;;;;;;;;;4940157;29;20187;-92
2023/01/22 10:54:24;;;;;;;12.33;11.13;;;;;;;;;;4940334;29;20187;-91
2023/01/22 10:56:51;;;;;;;13.80;11.27;;;;;;;;;;4941016;29;20178;-91
2023/01/22 10:59:25;;;;;;;13.57;11.17;;;;;;;;;;4924319;29;20250;-91
2023/01/22 11:01:58;;;;;;;12.53;11.23;;;;;;;;;;4939741;29;20186;-91
2023/01/22 11:04:25;;;;;;;12.40;10.67;;;;;;;;;;4939185;29;20191;-91
2023/01/22 11:06:57;;;;;;;13.13;10.47;;;;;;;;;;4939344;28;20227;-91
2023/01/22 11:09:26;;;;;;;11.60;10.40;;;;;;;;;;4939268;29;20274;-92
2023/01/22 11:12:12;;;;;;;11.87;10.63;;;;;;;;;;4939543;28;20176;-92
2023/01/22 11:14:41;;;;;;;11.87;10.63;;;;;;;;;;4939260;29;20215;-91
2023/01/22 11:17:22;;;;;;;13.67;10.40;;;;;;;;;;4924248;29;20190;-91
2023/01/22 11:19:54;;;;;;;14.23;10.57;;;;;;;;;;4939434;29;20203;-92
2023/01/22 11:22:22;;;;;;;12.80;10.33;;;;;;;;;;4948478;29;20191;-91
2023/01/22 11:24:48;;;;;;;13.50;10.30;;;;;;;;;;4938434;29;20217;-90
2023/01/22 11:27:14;;;;;;;14.87;10.23;;;;;;;;;;4954465;28;20192;-91
2023/01/22 11:29:54;;;;;;;12.43;11.03;;;;;;;;;;4938957;29;20294;-91
2023/01/22 11:32:30;;;;;;;12.37;10.30;;;;;;;;;;4935888;29;20184;-91
2023/01/22 11:35:15;;;;;;;13.60;10.70;;;;;;;;;;4953332;28;20238;-91
2023/01/22 11:37:41;;;;;;;14.53;10.83;;;;;;;;;;4954904;29;20178;-92
2023/01/22 11:40:07;;;;;;;15.47;11.37;;;;;;;;;;4955660;29;20196;-92
2023/01/22 11:42:55;;;;;;;13.27;10.60;;;;;;;;;;4955352;29;20219;-91
2023/01/22 11:45:42;;;;;;;12.77;10.93;;;;;;;;;;4955335;29;20199;-92
2023/01/22 11:48:40;;;;;;;14.13;11.40;;;;;;;;;;4958128;28;20221;-91
2023/01/22 11:51:21;;;;;;;;;;;;;;;;;;;;;
2023/01/22 11:54:09;;;;;;;14.30;11.57;;;;;;;;;;4963013;29;20179;-91
2023/01/22 11:56:51;;;;;;;12.70;11.00;;;;;;;;;;4961586;28;20190;-92
2023/01/22 11:59:50;;;;;;;13.23;10.80;;;;;;;;;;4961639;29;20182;-92
2023/01/22 12:02:34;;;;;;;12.60;11.30;;;;;;;;;;4924873;29;20191;-93
2023/01/22 12:05:19;;;;;;;15.20;11.00;;;;;;;;;;4949645;29;20187;-92
2023/01/22 12:08:00;;;;;;;15.50;11.77;;;;;;;;;;4945945;29;20186;-92
2023/01/22 12:10:41;;;;;;;13.67;11.07;;;;;;;;;;4944704;29;20210;-90
2023/01/22 12:13:32;;;;;;;14.73;11.70;;;;;;;;;;4944877;29;20183;-93
2023/01/22 12:16:04;;;;;;;12.00;10.70;;;;;;;;;;4958054;28;20273;-91
2023/01/22 12:18:30;;;;;;;12.90;11.43;;;;;;;;;;4948339;28;20183;-91
2023/01/22 12:21:06;;;;;;;14.17;11.13;;;;;;;;;;4945245;29;20179;-90
2023/01/22 12:23:38;;;;;;;14.57;11.37;;;;;;;;;;4944993;29;20237;-91
2023/01/22 12:26:13;;;;;;;13.20;11.07;;;;;;;;;;4940800;29;20191;-90
2023/01/22 12:28:39;;;;;;;14.90;10.83;;;;;;;;;;4955372;28;20190;-90
2023/01/22 12:31:41;;;;;;;14.37;11.17;;;;;;;;;;4943891;29;20305;-92
2023/01/22 12:34:16;;;;;;;12.40;10.70;;;;;;;;;;4932286;29;20191;-93
2023/01/22 12:36:43;;;;;;;12.63;11.17;;;;;;;;;;4956973;29;20237;-91
2023/01/22 12:39:29;;;;;;;13.13;11.73;;;;;;;;;;4945498;29;20183;-91
2023/01/22 12:42:15;;;;;;;;;;;;;;;;;;;;;
2023/01/22 12:44:52;;;;;;;15.93;11.90;;;;;;;;;;4962191;29;20186;-92
2023/01/22 12:47:28;;;;;;;18.23;11.87;;;;;;;;;;4945658;28;20271;-91
2023/01/22 12:50:23;;;;;;;14.63;11.73;;;;;;;;;;4945337;28;20206;-92
2023/01/22 12:53:02;;;;;;;13.80;11.47;;;;;;;;;;4961543;28;20206;-92
2023/01/22 12:55:49;;;;;;;13.47;11.90;;;;;;;;;;4945947;28;20207;-92
2023/01/22 12:58:35;;;;;;;16.67;11.67;;;;;;;;;;4962027;28;20187;-91
2023/01/22 13:01:05;;;;;;;13.83;11.73;;;;;;;;;;4943247;29;20183;-92
2023/01/22 13:03:44;;;;;;;14.73;12.73;;;;;;;;;;4943486;28;20191;-92
2023/01/22 13:06:29;;;;;;;15.37;12.10;;;;;;;;;;4928532;29;20238;-93
2023/01/22 13:08:57;;;;;;;13.03;11.70;;;;;;;;;;4943209;28;20191;-92
2023/01/22 13:11:44;;;;;;;15.80;12.20;;;;;;;;;;4959892;29;20207;-93
2023/01/22 13:14:30;;;;;;;15.87;11.73;;;;;;;;;;4942858;28;20176;-92
2023/01/22 13:17:38;;;;;;;14.83;11.87;;;;;;;;;;4943141;29;20179;-93
2023/01/22 13:20:04;;;;;;;16.35;13.98;;;;;;;;;;4866256;29;20414;-92
2023/01/22 13:25:30;;;;;;;16.80;12.67;;;;;;;;;;4850175;29;20298;-92
2023/01/22 13:28:01;;;;;;;15.57;13.75;;;;;;;;;;4865465;29;20434;-92
2023/01/22 13:30:30;;;;;;;14.80;12.53;;;;;;;;;;4875110;29;20300;-92
2023/01/22 13:33:13;;;;;;;16.70;14.90;;;;;;;;;;4941028;28;20447;-92
2023/01/22 13:35:46;;;;;;;14.27;12.57;;;;;;;;;;4958752;29;20231;-92
2023/01/22 13:38:22;;;;;;;17.73;15.90;;;;;;;;;;4941461;28;20426;-92
2023/01/22 13:40:58;;;;;;;16.53;13.23;;;;;;;;;;4943161;28;20178;-92
2023/01/22 13:43:25;;;;;;;15.87;12.90;;;;;;;;;;4941900;28;20247;-92
2023/01/22 13:46:20;;;;;;;17.80;15.90;;;;;;;;;;4941280;28;20416;-93
2023/01/22 13:48:59;;;;;;;16.00;12.67;;;;;;;;;;4942206;28;20258;-93
2023/01/22 13:51:48;;;;;;;17.55;15.75;;;;;;;;;;4942002;28;20427;-93
2023/01/22 13:54:32;;;;;;;14.83;13.23;;;;;;;;;;4941344;29;20243;-92
2023/01/22 13:57:01;;;;;;;16.92;15.13;;;;;;;;;;4941681;29;20447;-92
2023/01/22 13:59:34;;;;;;;15.93;13.00;;;;;;;;;;4942689;28;20207;-92
2023/01/22 14:02:19;;;;;;;16.93;12.87;;;;;;;;;;4926571;29;20191;-92
2023/01/22 14:04:54;;;;;;;15.53;13.43;;;;;;;;;;4942065;28;20176;-92
2023/01/22 14:07:55;;;;;;;17.80;15.90;;;;;;;;;;4941594;28;20422;-92
2023/01/22 14:11:05;;;;;;;16.57;13.30;;;;;;;;;;4866700;29;20229;-93
2023/01/22 14:13:49;;;;;;;15.50;12.73;;;;;;;;;;4880501;29;20193;-93
2023/01/22 14:16:25;;;;;;;18.23;13.37;;;;;;;;;;4864697;29;20210;-92
2023/01/22 14:19:06;;;;;;;16.63;13.30;;;;;;;;;;4865289;29;20196;-92
2023/01/22 14:25:15;;;;;;;19.02;17.02;;;;;;;;;;4880430;29;20393;-93
2023/01/22 14:27:47;;;;;;;15.37;13.53;;;;;;;;;;4881464;29;20185;-93
2023/01/22 14:30:27;;;;;;;16.40;13.90;;;;;;;;;;4865344;29;20209;-93
2023/01/22 14:32:56;;;;;;;17.95;15.82;;;;;;;;;;4900994;29;20412;-93
2023/01/22 14:35:26;;;;;;;18.90;16.90;;;;;;;;;;4940582;28;20436;-93
2023/01/22 14:38:01;;;;;;;20.00;14.07;;;;;;;;;;4942208;28;20241;-92
2023/01/22 14:40:35;;;;;;;18.73;14.68;;;;;;;;;;4941839;28;20420;-92
2023/01/22 14:43:01;;;;;;;17.03;14.63;;;;;;;;;;4924914;29;20198;-92
2023/01/22 14:49:00;;;;;;;18.70;16.80;;;;;;;;;;4958014;29;20449;-93
2023/01/22 14:51:29;;;;;;;19.20;17.13;;;;;;;;;;4940787;29;20443;-92
2023/01/22 14:54:07;;;;;;;19.80;17.80;;;;;;;;;;4940116;28;20431;-92
2023/01/22 14:56:51;;;;;;;17.13;15.27;;;;;;;;;;4940900;28;20178;-92
2023/01/22 14:59:19;;;;;;;19.03;14.43;;;;;;;;;;4940900;28;20179;-93